createdAt,value
2018-10-07T00:02:20.254Z,12.84
2018-10-07T00:04:47.779Z,12.85
2018-10-07T00:07:15.211Z,12.85
2018-10-07T00:09:42.678Z,12.83
2018-10-07T00:12:10.205Z,12.81
2018-10-07T00:14:37.632Z,12.83
2018-10-07T00:17:05.311Z,12.85
2018-10-07T00:19:32.712Z,12.86
2018-10-07T00:22:00.242Z,12.87
2018-10-07T00:24:27.667Z,12.84
2018-10-07T00:26:55.086Z,12.85
2018-10-07T00:29:22.513Z,12.84
2018-10-07T00:31:55.634Z,12.83
2018-10-07T00:34:23.154Z,12.82
2018-10-07T00:36:50.574Z,12.84
2018-10-07T00:39:18.024Z,12.82
2018-10-07T00:41:45.422Z,12.84
2018-10-07T00:44:13.039Z,12.85
2018-10-07T00:46:40.516Z,12.79
2018-10-07T00:49:07.946Z,12.71
2018-10-07T00:51:35.429Z,12.67
2018-10-07T00:54:02.923Z,12.62
2018-10-07T00:56:30.369Z,12.58
2018-10-07T00:58:57.745Z,12.54
2018-10-07T01:01:25.205Z,12.52
2018-10-07T01:03:52.747Z,12.49
2018-10-07T01:06:20.193Z,12.45
2018-10-07T01:08:47.630Z,12.42
2018-10-07T01:11:15.183Z,12.42
2018-10-07T01:13:42.567Z,12.41
2018-10-07T01:16:10.038Z,12.33
2018-10-07T01:18:37.576Z,12.25
2018-10-07T01:21:05.094Z,12.16
2018-10-07T01:23:32.590Z,12.11
2018-10-07T01:26:00.019Z,12.09
2018-10-07T01:28:27.446Z,12.06
2018-10-07T01:30:54.902Z,12.03
2018-10-07T01:33:22.533Z,11.98
2018-10-07T01:35:50.054Z,11.96
2018-10-07T01:38:17.524Z,11.97
2018-10-07T01:40:44.926Z,11.99
2018-10-07T01:43:12.472Z,11.93
2018-10-07T01:45:40.068Z,11.85
2018-10-07T01:48:07.460Z,11.78
2018-10-07T01:50:34.864Z,11.82
2018-10-07T01:53:02.296Z,11.83
2018-10-07T01:55:29.836Z,11.77
2018-10-07T01:57:57.321Z,11.75
2018-10-07T02:00:24.811Z,11.75
2018-10-07T02:02:52.246Z,11.84
2018-10-07T02:05:19.741Z,11.84
2018-10-07T02:07:47.206Z,11.82
2018-10-07T02:10:14.654Z,11.79
2018-10-07T02:12:42.106Z,11.74
2018-10-07T02:15:09.574Z,11.75
2018-10-07T02:17:36.974Z,11.70
2018-10-07T02:20:04.626Z,11.63
2018-10-07T02:22:32.212Z,11.62
2018-10-07T02:24:59.658Z,11.66
2018-10-07T02:27:27.142Z,11.64
2018-10-07T02:29:54.584Z,11.62
2018-10-07T02:32:22.037Z,11.59
2018-10-07T02:34:49.531Z,11.55
2018-10-07T02:37:16.967Z,11.53
2018-10-07T02:39:44.421Z,11.49
2018-10-07T02:42:11.854Z,11.45
2018-10-07T02:44:39.361Z,11.46
2018-10-07T02:47:06.801Z,11.53
2018-10-07T02:49:34.231Z,11.58
2018-10-07T02:52:01.808Z,11.61
2018-10-07T02:54:29.459Z,11.59
2018-10-07T02:56:56.950Z,11.60
2018-10-07T02:59:24.514Z,11.62
2018-10-07T03:01:51.962Z,11.64
2018-10-07T03:04:19.332Z,11.62
2018-10-07T03:06:46.950Z,11.58
2018-10-07T03:09:14.339Z,11.57
2018-10-07T03:11:41.706Z,11.57
2018-10-07T03:14:09.335Z,11.55
2018-10-07T03:16:36.834Z,11.47
2018-10-07T03:19:04.290Z,11.43
2018-10-07T03:21:32.206Z,11.45
2018-10-07T03:23:59.602Z,11.47
2018-10-07T03:26:27.050Z,11.41
2018-10-07T03:28:55.217Z,11.35
2018-10-07T03:31:22.656Z,11.38
2018-10-07T03:33:50.048Z,11.68
2018-10-07T03:36:17.872Z,11.82
2018-10-07T03:38:45.253Z,11.93
2018-10-07T03:41:12.844Z,11.99
2018-10-07T03:43:40.266Z,12.08
2018-10-07T03:46:07.682Z,12.15
2018-10-07T03:48:35.361Z,12.22
2018-10-07T03:51:02.848Z,12.25
2018-10-07T03:53:30.308Z,12.28
2018-10-07T03:55:57.893Z,12.24
2018-10-07T03:58:25.359Z,12.19
2018-10-07T04:00:53.235Z,12.12
2018-10-07T04:03:20.600Z,12.06
2018-10-07T04:05:48.213Z,11.94
2018-10-07T04:08:15.659Z,11.86
2018-10-07T04:10:43.179Z,11.75
2018-10-07T04:13:10.782Z,11.66
2018-10-07T04:15:38.389Z,11.57
2018-10-07T04:18:05.849Z,11.52
2018-10-07T04:20:33.370Z,11.46
2018-10-07T04:23:03.921Z,11.44
2018-10-07T04:25:31.476Z,11.69
2018-10-07T04:27:59.031Z,11.71
2018-10-07T04:30:26.473Z,11.64
2018-10-07T04:32:53.945Z,11.59
2018-10-07T04:35:21.557Z,11.56
2018-10-07T04:37:48.966Z,11.53
2018-10-07T04:40:16.403Z,11.48
2018-10-07T04:42:43.844Z,11.43
2018-10-07T04:45:11.329Z,11.43
2018-10-07T04:47:38.723Z,11.50
2018-10-07T04:50:06.738Z,11.45
2018-10-07T04:52:34.303Z,11.62
2018-10-07T04:55:01.754Z,11.63
2018-10-07T04:57:29.271Z,11.68
2018-10-07T04:59:56.681Z,11.70
2018-10-07T05:02:24.204Z,11.62
2018-10-07T05:04:51.982Z,11.50
2018-10-07T05:07:19.504Z,11.41
2018-10-07T05:09:47.181Z,11.38
2018-10-07T05:12:16.157Z,11.42
2018-10-07T05:14:43.632Z,11.37
2018-10-07T05:17:11.488Z,11.34
2018-10-07T05:19:39.091Z,11.29
2018-10-07T05:22:06.559Z,11.25
2018-10-07T05:24:33.997Z,11.21
2018-10-07T05:27:01.452Z,11.15
2018-10-07T05:29:28.857Z,11.14
2018-10-07T05:31:56.351Z,11.21
2018-10-07T05:34:23.773Z,11.22
2018-10-07T05:36:51.194Z,11.17
2018-10-07T05:39:18.660Z,11.14
2018-10-07T05:41:46.362Z,11.15
2018-10-07T05:44:13.740Z,11.13
2018-10-07T05:46:41.241Z,11.21
2018-10-07T05:49:08.646Z,11.27
2018-10-07T05:51:36.070Z,11.38
2018-10-07T05:54:03.516Z,11.47
2018-10-07T05:56:30.953Z,11.70
2018-10-07T05:58:58.557Z,11.90
2018-10-07T06:01:29.166Z,12.12
2018-10-07T06:04:11.180Z,12.42
2018-10-07T06:06:38.682Z,12.95
2018-10-07T06:09:10.231Z,13.88
2018-10-07T06:11:37.902Z,15.06
2018-10-07T06:14:05.526Z,16.31
2018-10-07T06:16:33.121Z,17.34
2018-10-07T06:19:00.558Z,17.83
2018-10-07T06:21:28.184Z,18.67
2018-10-07T06:23:55.630Z,19.58
2018-10-07T06:26:23.114Z,20.29
2018-10-07T06:28:50.536Z,21.01
2018-10-07T06:31:17.992Z,21.67
2018-10-07T06:33:45.400Z,22.40
2018-10-07T06:36:12.974Z,22.21
2018-10-07T06:38:40.550Z,22.33
2018-10-07T06:41:08.199Z,22.29
2018-10-07T06:43:35.597Z,22.54
2018-10-07T06:51:01.198Z,22.52
2018-10-07T06:53:28.671Z,23.12
2018-10-07T06:55:56.086Z,24.03
2018-10-07T06:58:23.562Z,25.16
2018-10-07T07:00:51.040Z,26.32
2018-10-07T07:03:18.530Z,27.03
2018-10-07T07:05:46.038Z,27.35
2018-10-07T07:08:13.694Z,26.69
2018-10-07T07:10:41.154Z,25.47
2018-10-07T07:13:08.699Z,23.62
2018-10-07T07:15:36.069Z,22.91
2018-10-07T07:18:03.534Z,22.72
2018-10-07T07:20:30.956Z,22.07
2018-10-07T07:22:58.439Z,22.31
2018-10-07T07:25:26.004Z,21.94
2018-10-07T07:27:53.425Z,21.63
2018-10-07T07:30:20.790Z,20.55
2018-10-07T07:32:48.154Z,20.39
2018-10-07T07:35:15.576Z,19.99
2018-10-07T07:37:43.096Z,20.02
2018-10-07T07:40:10.520Z,19.88
2018-10-07T07:42:38.007Z,19.84
2018-10-07T07:45:05.509Z,20.08
2018-10-07T07:47:33.018Z,20.92
2018-10-07T07:50:00.490Z,21.80
2018-10-07T07:52:28.010Z,22.75
2018-10-07T07:54:55.416Z,23.38
2018-10-07T07:57:22.890Z,23.59
2018-10-07T07:59:50.297Z,24.83
2018-10-07T08:02:17.778Z,26.00
2018-10-07T08:04:45.238Z,27.18
2018-10-07T08:07:12.662Z,27.06
2018-10-07T08:09:40.053Z,27.24
2018-10-07T08:12:07.549Z,27.28
2018-10-07T08:14:34.966Z,26.56
2018-10-07T08:17:02.404Z,25.75
2018-10-07T08:19:29.955Z,24.83
2018-10-07T08:21:57.390Z,24.41
2018-10-07T08:24:24.818Z,24.49
2018-10-07T08:26:52.476Z,23.95
2018-10-07T08:29:19.882Z,23.57
2018-10-07T08:31:47.374Z,23.25
2018-10-07T08:34:14.949Z,22.95
2018-10-07T08:36:42.391Z,22.33
2018-10-07T08:39:10.346Z,21.82
2018-10-07T08:41:38.032Z,21.11
2018-10-07T08:44:05.643Z,21.50
2018-10-07T08:46:33.055Z,23.23
2018-10-07T08:49:00.486Z,24.53
2018-10-07T08:51:27.904Z,25.74
2018-10-07T08:53:55.366Z,25.87
2018-10-07T08:56:23.179Z,26.78
2018-10-07T08:58:50.928Z,27.79
2018-10-07T09:01:18.406Z,27.92
2018-10-07T09:03:46.187Z,26.95
2018-10-07T09:06:13.792Z,26.07
2018-10-07T09:08:41.441Z,24.74
2018-10-07T09:11:09.351Z,23.36
2018-10-07T09:13:37.086Z,22.27
2018-10-07T09:16:05.061Z,21.67
2018-10-07T09:18:33.150Z,21.26
2018-10-07T09:21:00.884Z,20.97
2018-10-07T09:23:28.706Z,20.96
2018-10-07T09:25:56.436Z,20.97
2018-10-07T09:28:24.320Z,21.06
2018-10-07T09:30:51.865Z,21.06
2018-10-07T09:33:19.562Z,20.89
2018-10-07T09:35:47.082Z,21.26
2018-10-07T09:38:14.515Z,21.43
2018-10-07T09:40:41.964Z,21.56
2018-10-07T09:43:09.379Z,21.33
2018-10-07T09:45:37.310Z,21.38
2018-10-07T09:48:04.869Z,21.13
2018-10-07T09:50:32.339Z,21.07
2018-10-07T09:52:59.764Z,21.20
2018-10-07T09:55:27.199Z,20.93
2018-10-07T09:57:54.717Z,21.22
2018-10-07T10:00:27.709Z,21.37
2018-10-07T10:02:55.465Z,21.32
2018-10-07T10:05:22.900Z,21.56
2018-10-07T10:07:50.441Z,21.94
2018-10-07T10:10:17.909Z,22.32
2018-10-07T10:12:45.417Z,22.91
2018-10-07T10:15:12.973Z,22.30
2018-10-07T10:17:44.638Z,21.86
2018-10-07T10:20:12.349Z,21.78
2018-10-07T10:24:55.694Z,21.52
2018-10-07T10:27:34.462Z,21.67
2018-10-07T10:30:06.781Z,21.42
2018-10-07T10:33:55.810Z,21.64
2018-10-07T10:36:30.522Z,21.75
2018-10-07T10:39:06.396Z,21.71
2018-10-07T10:41:45.487Z,21.56
2018-10-07T10:44:20.666Z,21.29
2018-10-07T10:47:04.806Z,21.15
2018-10-07T10:49:39.493Z,21.03
2018-10-07T10:52:14.486Z,20.84
2018-10-07T10:54:51.958Z,20.72
2018-10-07T10:57:29.237Z,20.67
2018-10-07T11:00:02.706Z,20.56
2018-10-07T11:04:43.737Z,20.51
2018-10-07T11:07:16.988Z,20.23
2018-10-07T11:10:53.233Z,20.22
2018-10-07T11:13:31.568Z,20.13
2018-10-07T11:16:24.374Z,19.97
2018-10-07T11:19:25.987Z,20.07
2018-10-07T11:24:13.967Z,20.02
2018-10-07T11:26:54.685Z,20.30
2018-10-07T11:29:59.547Z,20.18
2018-10-07T11:32:35.594Z,19.97
2018-10-07T11:35:17.632Z,20.21
2018-10-07T11:38:03.476Z,20.33
2018-10-07T11:40:42.534Z,19.82
2018-10-07T11:43:18.814Z,19.62
2018-10-07T11:45:54.359Z,20.13
2018-10-07T11:48:26.134Z,20.90
2018-10-07T11:51:05.338Z,21.15
2018-10-07T11:53:36.326Z,21.02
2018-10-07T11:56:03.752Z,21.12
2018-10-07T11:58:31.247Z,21.24
2018-10-07T12:00:58.876Z,21.00
2018-10-07T12:03:26.384Z,21.10
2018-10-07T12:05:53.786Z,21.18
2018-10-07T12:08:21.649Z,21.33
2018-10-07T12:10:49.165Z,21.84
2018-10-07T12:13:16.585Z,22.16
2018-10-07T12:15:44.239Z,22.36
2018-10-07T12:18:11.880Z,22.64
2018-10-07T12:20:39.265Z,22.29
2018-10-07T12:23:06.927Z,22.25
2018-10-07T12:25:34.516Z,22.04
2018-10-07T12:28:02.128Z,21.82
2018-10-07T12:30:29.749Z,22.16
2018-10-07T12:32:57.308Z,22.13
2018-10-07T12:35:24.931Z,21.64
2018-10-07T12:37:52.721Z,21.10
2018-10-07T12:40:20.236Z,20.93
2018-10-07T12:42:48.487Z,20.87
2018-10-07T12:45:15.951Z,20.77
2018-10-07T12:47:43.360Z,20.47
2018-10-07T12:50:10.982Z,20.26
2018-10-07T12:52:39.528Z,20.02
2018-10-07T12:55:07.294Z,20.04
2018-10-07T12:57:35.050Z,19.71
2018-10-07T13:00:02.779Z,19.30
2018-10-07T13:02:30.342Z,19.20
2018-10-07T13:04:57.803Z,19.18
2018-10-07T13:07:25.465Z,19.01
2018-10-07T13:09:53.134Z,19.20
2018-10-07T13:12:20.862Z,19.40
2018-10-07T13:14:48.425Z,19.76
2018-10-07T13:17:15.981Z,19.94
2018-10-07T13:19:43.446Z,19.61
2018-10-07T13:22:11.080Z,19.13
2018-10-07T13:24:38.581Z,18.93
2018-10-07T13:27:06.266Z,18.91
2018-10-07T13:29:33.824Z,18.91
2018-10-07T13:32:01.350Z,18.94
2018-10-07T13:34:28.776Z,18.95
2018-10-07T13:36:56.234Z,18.97
2018-10-07T13:39:23.858Z,18.91
2018-10-07T13:41:51.468Z,18.81
2018-10-07T13:44:18.970Z,18.82
2018-10-07T13:46:46.481Z,18.79
2018-10-07T13:49:14.028Z,18.41
2018-10-07T13:51:41.567Z,18.25
2018-10-07T13:54:08.966Z,17.96
2018-10-07T13:56:36.419Z,17.84
2018-10-07T13:59:03.913Z,18.16
2018-10-07T14:01:31.402Z,18.37
2018-10-07T14:03:59.269Z,18.29
2018-10-07T14:06:26.702Z,18.28
2018-10-07T14:08:54.326Z,18.02
2018-10-07T14:11:21.813Z,17.70
2018-10-07T14:13:49.312Z,17.40
2018-10-07T14:16:16.766Z,17.17
2018-10-07T14:18:44.243Z,16.99
2018-10-07T14:21:11.824Z,16.90
2018-10-07T14:23:39.376Z,16.70
2018-10-07T14:26:07.033Z,16.58
2018-10-07T14:28:34.622Z,16.45
2018-10-07T14:31:02.239Z,16.49
2018-10-07T14:33:29.736Z,16.36
2018-10-07T14:35:57.336Z,16.40
2018-10-07T14:38:24.817Z,16.45
2018-10-07T14:40:52.582Z,16.26
2018-10-07T14:43:20.176Z,16.11
2018-10-07T14:45:47.878Z,16.03
2018-10-07T14:48:15.422Z,16.02
2018-10-07T14:50:43.047Z,16.11
2018-10-07T14:53:10.537Z,15.98
2018-10-07T14:55:38.044Z,15.90
2018-10-07T14:58:05.842Z,15.89
2018-10-07T15:00:33.338Z,16.00
2018-10-07T15:03:00.758Z,16.14
2018-10-07T15:05:28.221Z,16.28
2018-10-07T15:07:55.753Z,16.20
2018-10-07T15:10:23.210Z,16.25
2018-10-07T15:12:50.736Z,16.33
2018-10-07T15:15:18.333Z,16.27
2018-10-07T15:17:45.745Z,16.14
2018-10-07T15:20:13.238Z,16.00
2018-10-07T15:22:40.746Z,15.88
2018-10-07T15:25:08.357Z,15.90
2018-10-07T15:27:35.858Z,15.76
2018-10-07T15:30:03.416Z,15.78
2018-10-07T15:32:30.950Z,15.65
2018-10-07T15:35:00.410Z,15.63
2018-10-07T15:37:27.886Z,15.48
2018-10-07T15:39:55.314Z,15.40
2018-10-07T15:42:22.842Z,15.27
2018-10-07T15:44:50.350Z,15.19
2018-10-07T15:47:17.807Z,15.13
2018-10-07T15:49:45.310Z,14.98
2018-10-07T15:52:12.805Z,14.93
2018-10-07T15:54:40.227Z,14.89
2018-10-07T15:57:07.783Z,14.83
2018-10-07T15:59:35.358Z,14.74
2018-10-07T16:02:02.852Z,14.70
2018-10-07T16:04:30.384Z,14.63
2018-10-07T16:06:57.854Z,14.56
2018-10-07T16:09:25.279Z,14.53
2018-10-07T16:11:52.784Z,14.49
2018-10-07T16:14:20.344Z,14.41
2018-10-07T16:16:47.830Z,14.34
2018-10-07T16:19:15.318Z,14.33
2018-10-07T16:21:42.902Z,14.24
2018-10-07T16:24:10.505Z,14.17
2018-10-07T16:26:38.292Z,14.11
2018-10-07T16:29:05.760Z,14.03
2018-10-07T16:31:33.374Z,13.99
2018-10-07T16:34:00.962Z,13.90
2018-10-07T16:36:28.526Z,13.87
2018-10-07T16:38:56.088Z,13.83
2018-10-07T16:41:23.761Z,13.80
2018-10-07T16:43:51.262Z,13.74
2018-10-07T16:46:18.727Z,13.67
2018-10-07T16:48:46.253Z,13.57
2018-10-07T16:51:13.860Z,13.50
2018-10-07T16:53:41.492Z,13.49
2018-10-07T16:56:09.144Z,13.57
2018-10-07T16:58:36.888Z,13.49
2018-10-07T17:01:04.414Z,13.37
2018-10-07T17:03:32.056Z,13.31
2018-10-07T17:05:59.553Z,13.31
2018-10-07T17:08:27.269Z,13.25
2018-10-07T17:10:54.887Z,13.19
2018-10-07T17:13:22.467Z,13.19
2018-10-07T17:15:50.094Z,13.28
2018-10-07T17:18:17.684Z,13.35
2018-10-07T17:20:45.270Z,13.43
2018-10-07T17:23:12.795Z,13.45
2018-10-07T17:25:40.450Z,13.47
2018-10-07T17:28:07.936Z,13.57
2018-10-07T17:30:35.518Z,13.63
2018-10-07T17:33:03.056Z,13.67
2018-10-07T17:35:30.623Z,13.80
2018-10-07T17:37:58.036Z,13.82
2018-10-07T17:40:25.538Z,13.90
2018-10-07T17:42:53.346Z,13.86
2018-10-07T17:45:20.978Z,13.88
2018-10-07T17:47:48.415Z,13.86
2018-10-07T17:50:15.906Z,13.82
2018-10-07T17:52:43.422Z,13.79
2018-10-07T17:55:11.066Z,13.78
2018-10-07T17:57:38.510Z,13.73
2018-10-07T18:00:05.994Z,13.71
2018-10-07T18:02:33.559Z,13.60
2018-10-07T18:05:01.038Z,13.53
2018-10-07T18:07:28.643Z,13.39
2018-10-07T18:09:56.151Z,13.27
2018-10-07T18:12:23.801Z,13.24
2018-10-07T18:14:51.263Z,13.20
2018-10-07T18:17:18.774Z,13.14
2018-10-07T18:19:46.252Z,13.13
2018-10-07T18:22:13.772Z,13.01
2018-10-07T18:24:41.280Z,12.99
2018-10-07T18:27:08.802Z,12.94
2018-10-07T18:29:36.362Z,12.83
2018-10-07T18:32:03.950Z,12.76
2018-10-07T18:34:31.565Z,12.81
2018-10-07T18:36:59.040Z,12.81
2018-10-07T18:39:26.518Z,12.72
2018-10-07T18:41:54.031Z,12.65
2018-10-07T18:44:21.715Z,12.56
2018-10-07T18:46:49.338Z,12.57
2018-10-07T18:49:16.768Z,12.54
2018-10-07T18:51:44.289Z,12.59
2018-10-07T18:54:11.799Z,12.52
2018-10-07T18:56:39.279Z,12.51
2018-10-07T18:59:06.832Z,12.47
2018-10-07T19:01:34.413Z,12.47
2018-10-07T19:04:01.890Z,12.43
2018-10-07T19:06:29.351Z,12.33
2018-10-07T19:08:56.810Z,12.27
2018-10-07T19:11:24.472Z,12.24
2018-10-07T19:13:52.098Z,12.37
2018-10-07T19:16:19.610Z,12.37
2018-10-07T19:18:47.143Z,12.29
2018-10-07T19:21:14.723Z,12.27
2018-10-07T19:23:42.147Z,12.30
2018-10-07T19:26:09.764Z,12.21
2018-10-07T19:28:37.256Z,12.16
2018-10-07T19:31:04.975Z,12.09
2018-10-07T19:33:32.498Z,12.04
2018-10-07T19:35:59.970Z,11.98
2018-10-07T19:38:27.879Z,11.96
2018-10-07T19:40:55.430Z,11.93
2018-10-07T19:43:22.953Z,11.91
2018-10-07T19:45:50.432Z,11.99
2018-10-07T19:48:17.881Z,11.98
2018-10-07T19:50:45.301Z,12.00
2018-10-07T19:53:13.039Z,11.95
2018-10-07T19:55:40.541Z,11.93
2018-10-07T19:58:08.077Z,11.90
2018-10-07T20:00:35.699Z,11.85
2018-10-07T20:03:03.218Z,11.79
2018-10-07T20:05:30.758Z,11.85
2018-10-07T20:07:58.210Z,11.81
2018-10-07T20:10:25.686Z,11.80
2018-10-07T20:12:53.078Z,11.73
2018-10-07T20:15:20.558Z,11.76
2018-10-07T20:17:48.202Z,11.76
2018-10-07T20:20:15.674Z,11.78
2018-10-07T20:22:43.292Z,11.75
2018-10-07T20:25:10.842Z,11.79
2018-10-07T20:27:38.420Z,11.75
2018-10-07T20:30:06.043Z,11.75
2018-10-07T20:32:33.529Z,11.77
2018-10-07T20:35:01.006Z,11.80
2018-10-07T20:37:28.516Z,11.82
2018-10-07T20:39:55.933Z,11.84
2018-10-07T20:42:23.454Z,11.90
2018-10-07T20:44:50.967Z,11.93
2018-10-07T20:47:18.678Z,11.91
2018-10-07T20:49:46.179Z,11.95
2018-10-07T20:52:13.745Z,12.01
2018-10-07T20:54:41.232Z,12.09
2018-10-07T20:57:08.787Z,12.18
2018-10-07T20:59:36.829Z,12.27
2018-10-07T21:02:04.363Z,12.29
2018-10-07T21:04:31.811Z,12.33
2018-10-07T21:06:59.323Z,12.35
2018-10-07T21:09:26.747Z,12.40
2018-10-07T21:11:54.308Z,12.39
2018-10-07T21:14:21.771Z,12.43
2018-10-07T21:16:49.240Z,12.41
2018-10-07T21:19:16.674Z,12.45
2018-10-07T21:21:44.234Z,12.45
2018-10-07T21:24:11.892Z,12.46
2018-10-07T21:26:39.451Z,12.49
2018-10-07T21:29:06.972Z,12.50
2018-10-07T21:31:34.531Z,12.51
2018-10-07T21:34:02.131Z,12.56
2018-10-07T21:36:29.636Z,12.56
2018-10-07T21:38:57.140Z,12.58
2018-10-07T21:41:24.663Z,12.58
2018-10-07T21:43:52.169Z,12.57
2018-10-07T21:46:19.625Z,12.58
2018-10-07T21:48:47.113Z,12.59
2018-10-07T21:51:14.608Z,12.61
2018-10-07T21:53:42.199Z,12.64
2018-10-07T21:56:09.804Z,12.62
2018-10-07T21:58:37.295Z,12.59
2018-10-07T22:01:04.742Z,12.59
2018-10-07T22:03:32.344Z,12.59
2018-10-07T22:05:59.776Z,12.62
2018-10-07T22:08:27.442Z,12.62
2018-10-07T22:10:54.878Z,12.64
2018-10-07T22:13:22.450Z,12.62
2018-10-07T22:15:49.928Z,12.61
2018-10-07T22:18:17.448Z,12.62
2018-10-07T22:20:44.876Z,12.58
2018-10-07T22:23:12.310Z,12.54
2018-10-07T22:25:39.758Z,12.47
2018-10-07T22:28:07.396Z,12.45
2018-10-07T22:30:34.826Z,12.35
2018-10-07T22:33:02.265Z,12.25
2018-10-07T22:35:29.717Z,12.10
2018-10-07T22:37:57.280Z,11.97
2018-10-07T22:40:24.744Z,11.90
2018-10-07T22:42:52.148Z,11.77
2018-10-07T22:45:19.584Z,11.66
2018-10-07T22:47:47.058Z,11.63
2018-10-07T22:50:14.625Z,11.52
2018-10-07T22:52:42.050Z,11.42
2018-10-07T22:55:09.500Z,11.38
2018-10-07T22:57:37.114Z,11.31
2018-10-07T23:00:05.060Z,11.26
2018-10-07T23:02:32.526Z,11.19
2018-10-07T23:04:59.950Z,11.14
2018-10-07T23:07:27.434Z,11.11
2018-10-07T23:09:54.886Z,11.08
2018-10-07T23:12:22.314Z,11.05
2018-10-07T23:14:49.774Z,11.01
2018-10-07T23:17:17.181Z,10.99
2018-10-07T23:19:44.605Z,10.95
2018-10-07T23:22:12.154Z,10.89
2018-10-07T23:24:39.530Z,10.90
2018-10-07T23:27:07.034Z,10.86
2018-10-07T23:29:34.468Z,10.76
2018-10-07T23:32:01.918Z,10.74
2018-10-07T23:34:29.354Z,10.76
2018-10-07T23:36:56.923Z,10.69
2018-10-07T23:39:24.820Z,10.67
2018-10-07T23:41:52.706Z,10.68
2018-10-07T23:44:20.148Z,10.69
2018-10-07T23:46:47.575Z,10.65
2018-10-07T23:49:15.031Z,10.65
2018-10-07T23:51:42.675Z,10.60
2018-10-07T23:54:10.030Z,10.59
2018-10-07T23:56:37.486Z,10.56
2018-10-07T23:59:04.949Z,10.55
